sensor_id;sensor_type;location;lat;lon;timestamp;pressure;altitude;pressure_sealevel;temperature;humidity
17521;BME280;8878;-33.370;-70.552;2023-04-19T00:02:01;92412.44;;;18.63;35.78
17521;BME280;8878;-33.370;-70.552;2023-04-19T00:04:31;92403.31;;;18.56;36.21
17521;BME280;8878;-33.370;-70.552;2023-04-19T00:07:01;92412.72;;;18.53;36.34
17521;BME280;8878;-33.370;-70.552;2023-04-19T00:09:32;92412.84;;;18.17;36.35
17521;BME280;8878;-33.370;-70.552;2023-04-19T00:12:02;92411.53;;;18.37;35.31
17521;BME280;8878;-33.370;-70.552;2023-04-19T00:14:31;92409.06;;;18.49;36.26
17521;BME280;8878;-33.370;-70.552;2023-04-19T00:17:01;92412.66;;;18.45;36.33
17521;BME280;8878;-33.370;-70.552;2023-04-19T00:19:30;92406.19;;;18.37;37.72
17521;BME280;8878;-33.370;-70.552;2023-04-19T00:22:00;92414.78;;;18.25;39.04
17521;BME280;8878;-33.370;-70.552;2023-04-19T00:24:32;92420.16;;;18.12;38.40
17521;BME280;8878;-33.370;-70.552;2023-04-19T00:27:01;92408.88;;;18.15;38.33
17521;BME280;8878;-33.370;-70.552;2023-04-19T00:29:31;92410.16;;;18.17;38.31
17521;BME280;8878;-33.370;-70.552;2023-04-19T00:32:00;92403.19;;;18.08;37.99
17521;BME280;8878;-33.370;-70.552;2023-04-19T00:34:31;92400.56;;;18.16;37.69
17521;BME280;8878;-33.370;-70.552;2023-04-19T00:37:02;92397.16;;;18.24;36.97
17521;BME280;8878;-33.370;-70.552;2023-04-19T00:39:33;92406.91;;;18.29;36.99
17521;BME280;8878;-33.370;-70.552;2023-04-19T00:42:04;92407.84;;;18.24;37.76
17521;BME280;8878;-33.370;-70.552;2023-04-19T00:44:35;92406.22;;;18.15;38.29
17521;BME280;8878;-33.370;-70.552;2023-04-19T00:47:05;92408.97;;;18.01;38.84
17521;BME280;8878;-33.370;-70.552;2023-04-19T00:49:34;92412.84;;;17.95;39.11
17521;BME280;8878;-33.370;-70.552;2023-04-19T00:52:04;92405.72;;;17.90;38.98
17521;BME280;8878;-33.370;-70.552;2023-04-19T00:54:36;92408.66;;;17.80;39.01
17521;BME280;8878;-33.370;-70.552;2023-04-19T00:57:07;92413.00;;;17.76;38.78
17521;BME280;8878;-33.370;-70.552;2023-04-19T00:59:36;92409.38;;;17.72;38.66
17521;BME280;8878;-33.370;-70.552;2023-04-19T01:02:07;92416.09;;;17.70;39.01
17521;BME280;8878;-33.370;-70.552;2023-04-19T01:04:37;92414.53;;;17.55;39.29
17521;BME280;8878;-33.370;-70.552;2023-04-19T01:07:06;92408.25;;;17.51;38.97
17521;BME280;8878;-33.370;-70.552;2023-04-19T01:09:42;92402.19;;;17.59;38.91
17521;BME280;8878;-33.370;-70.552;2023-04-19T01:12:14;92398.16;;;17.62;38.31
17521;BME280;8878;-33.370;-70.552;2023-04-19T01:14:43;92401.31;;;17.64;38.44
17521;BME280;8878;-33.370;-70.552;2023-04-19T01:17:13;92400.84;;;17.62;38.72
17521;BME280;8878;-33.370;-70.552;2023-04-19T01:19:43;92402.59;;;17.52;38.90
17521;BME280;8878;-33.370;-70.552;2023-04-19T01:22:17;92405.06;;;17.49;38.83
17521;BME280;8878;-33.370;-70.552;2023-04-19T01:24:47;92396.97;;;17.54;38.48
17521;BME280;8878;-33.370;-70.552;2023-04-19T01:27:17;92404.22;;;17.40;38.78
17521;BME280;8878;-33.370;-70.552;2023-04-19T01:29:46;92406.13;;;17.39;38.35
17521;BME280;8878;-33.370;-70.552;2023-04-19T01:32:16;92401.25;;;17.41;37.45
17521;BME280;8878;-33.370;-70.552;2023-04-19T01:34:45;92400.28;;;17.37;38.33
17521;BME280;8878;-33.370;-70.552;2023-04-19T01:37:17;92391.13;;;17.30;39.15
17521;BME280;8878;-33.370;-70.552;2023-04-19T01:39:46;92400.13;;;17.20;40.15
17521;BME280;8878;-33.370;-70.552;2023-04-19T01:42:15;92396.97;;;17.18;39.99
17521;BME280;8878;-33.370;-70.552;2023-04-19T01:44:44;92408.63;;;17.08;40.22
17521;BME280;8878;-33.370;-70.552;2023-04-19T01:47:17;92401.34;;;17.00;40.24
17521;BME280;8878;-33.370;-70.552;2023-04-19T01:49:46;92407.66;;;16.77;40.50
17521;BME280;8878;-33.370;-70.552;2023-04-19T01:52:18;92404.53;;;16.75;39.88
17521;BME280;8878;-33.370;-70.552;2023-04-19T01:54:47;92411.03;;;16.82;40.00
17521;BME280;8878;-33.370;-70.552;2023-04-19T01:57:17;92403.72;;;16.88;39.49
17521;BME280;8878;-33.370;-70.552;2023-04-19T01:59:46;92401.84;;;16.89;39.84
17521;BME280;8878;-33.370;-70.552;2023-04-19T02:02:16;92400.94;;;16.93;39.87
17521;BME280;8878;-33.370;-70.552;2023-04-19T02:04:45;92401.66;;;16.85;39.97
17521;BME280;8878;-33.370;-70.552;2023-04-19T02:07:16;92400.28;;;16.88;39.57
17521;BME280;8878;-33.370;-70.552;2023-04-19T02:09:46;92402.03;;;16.78;39.99
17521;BME280;8878;-33.370;-70.552;2023-04-19T02:12:15;92399.78;;;16.72;39.70
17521;BME280;8878;-33.370;-70.552;2023-04-19T02:14:45;92404.53;;;16.75;38.96
17521;BME280;8878;-33.370;-70.552;2023-04-19T02:17:14;92408.06;;;16.84;38.36
17521;BME280;8878;-33.370;-70.552;2023-04-19T02:19:44;92413.38;;;16.84;38.67
17521;BME280;8878;-33.370;-70.552;2023-04-19T02:22:13;92411.34;;;16.81;38.97
17521;BME280;8878;-33.370;-70.552;2023-04-19T02:24:44;92411.72;;;16.74;39.12
17521;BME280;8878;-33.370;-70.552;2023-04-19T02:27:14;92417.34;;;16.73;39.38
17521;BME280;8878;-33.370;-70.552;2023-04-19T02:29:44;92414.75;;;16.54;38.96
17521;BME280;8878;-33.370;-70.552;2023-04-19T02:32:13;92425.84;;;16.61;38.84
17521;BME280;8878;-33.370;-70.552;2023-04-19T02:34:43;92425.44;;;16.68;38.86
17521;BME280;8878;-33.370;-70.552;2023-04-19T02:37:12;92419.44;;;16.76;39.31
17521;BME280;8878;-33.370;-70.552;2023-04-19T02:39:43;92412.53;;;16.75;39.08
17521;BME280;8878;-33.370;-70.552;2023-04-19T02:42:13;92430.16;;;16.71;39.44
17521;BME280;8878;-33.370;-70.552;2023-04-19T02:44:42;92436.28;;;16.71;39.47
17521;BME280;8878;-33.370;-70.552;2023-04-19T02:47:11;92432.31;;;16.55;39.63
17521;BME280;8878;-33.370;-70.552;2023-04-19T02:49:41;92439.09;;;16.34;40.22
17521;BME280;8878;-33.370;-70.552;2023-04-19T02:52:10;92437.69;;;16.36;40.10
17521;BME280;8878;-33.370;-70.552;2023-04-19T02:54:40;92441.41;;;16.22;39.42
17521;BME280;8878;-33.370;-70.552;2023-04-19T02:57:12;92442.88;;;16.14;39.34
17521;BME280;8878;-33.370;-70.552;2023-04-19T02:59:41;92435.41;;;16.16;38.56
17521;BME280;8878;-33.370;-70.552;2023-04-19T03:02:11;92428.72;;;16.19;39.66
17521;BME280;8878;-33.370;-70.552;2023-04-19T03:04:40;92430.19;;;16.25;40.37
17521;BME280;8878;-33.370;-70.552;2023-04-19T03:07:09;92436.19;;;16.17;40.34
17521;BME280;8878;-33.370;-70.552;2023-04-19T03:09:39;92436.75;;;16.14;41.27
17521;BME280;8878;-33.370;-70.552;2023-04-19T03:12:09;92430.75;;;16.08;41.43
17521;BME280;8878;-33.370;-70.552;2023-04-19T03:14:40;92433.41;;;16.08;41.47
17521;BME280;8878;-33.370;-70.552;2023-04-19T03:17:09;92419.31;;;16.08;41.59
17521;BME280;8878;-33.370;-70.552;2023-04-19T03:19:38;92430.56;;;16.04;41.41
17521;BME280;8878;-33.370;-70.552;2023-04-19T03:22:08;92426.72;;;16.11;42.53
17521;BME280;8878;-33.370;-70.552;2023-04-19T03:24:37;92413.41;;;16.11;43.06
17521;BME280;8878;-33.370;-70.552;2023-04-19T03:27:08;92421.19;;;16.07;41.74
17521;BME280;8878;-33.370;-70.552;2023-04-19T03:29:39;92417.84;;;16.15;41.57
17521;BME280;8878;-33.370;-70.552;2023-04-19T03:32:09;92423.00;;;16.25;40.08
17521;BME280;8878;-33.370;-70.552;2023-04-19T03:34:38;92418.75;;;16.24;39.57
17521;BME280;8878;-33.370;-70.552;2023-04-19T03:37:08;92414.25;;;16.38;40.09
17521;BME280;8878;-33.370;-70.552;2023-04-19T03:39:37;92421.44;;;16.38;40.51
17521;BME280;8878;-33.370;-70.552;2023-04-19T03:42:06;92408.69;;;16.21;41.07
17521;BME280;8878;-33.370;-70.552;2023-04-19T03:44:36;92417.06;;;16.28;40.75
17521;BME280;8878;-33.370;-70.552;2023-04-19T03:47:07;92424.59;;;16.26;40.60
17521;BME280;8878;-33.370;-70.552;2023-04-19T03:49:37;92419.03;;;16.23;40.79
17521;BME280;8878;-33.370;-70.552;2023-04-19T03:52:06;92416.47;;;16.18;41.18
17521;BME280;8878;-33.370;-70.552;2023-04-19T03:54:36;92412.91;;;16.09;40.77
17521;BME280;8878;-33.370;-70.552;2023-04-19T03:57:05;92414.78;;;16.08;41.27
17521;BME280;8878;-33.370;-70.552;2023-04-19T03:59:36;92407.88;;;16.07;41.37
17521;BME280;8878;-33.370;-70.552;2023-04-19T04:02:08;92396.34;;;15.98;41.62
17521;BME280;8878;-33.370;-70.552;2023-04-19T04:04:37;92400.56;;;15.99;41.12
17521;BME280;8878;-33.370;-70.552;2023-04-19T04:07:07;92392.56;;;15.99;41.59
17521;BME280;8878;-33.370;-70.552;2023-04-19T04:09:37;92389.34;;;15.70;41.66
17521;BME280;8878;-33.370;-70.552;2023-04-19T04:12:08;92385.69;;;15.65;42.11
17521;BME280;8878;-33.370;-70.552;2023-04-19T04:14:39;92390.22;;;15.65;40.53
17521;BME280;8878;-33.370;-70.552;2023-04-19T04:17:10;92382.16;;;15.70;41.58
17521;BME280;8878;-33.370;-70.552;2023-04-19T04:19:40;92379.75;;;15.55;40.88
17521;BME280;8878;-33.370;-70.552;2023-04-19T04:22:10;92373.19;;;15.66;41.89
17521;BME280;8878;-33.370;-70.552;2023-04-19T04:24:41;92379.09;;;15.63;41.49
17521;BME280;8878;-33.370;-70.552;2023-04-19T04:27:10;92376.13;;;15.64;41.57
17521;BME280;8878;-33.370;-70.552;2023-04-19T04:29:40;92362.91;;;15.59;41.04
17521;BME280;8878;-33.370;-70.552;2023-04-19T04:32:11;92351.31;;;15.69;40.45
17521;BME280;8878;-33.370;-70.552;2023-04-19T04:34:44;92353.69;;;15.71;40.34
17521;BME280;8878;-33.370;-70.552;2023-04-19T04:37:13;92347.59;;;15.51;39.82
17521;BME280;8878;-33.370;-70.552;2023-04-19T04:39:43;92343.06;;;15.52;40.14
17521;BME280;8878;-33.370;-70.552;2023-04-19T04:42:13;92339.53;;;15.75;40.46
17521;BME280;8878;-33.370;-70.552;2023-04-19T04:44:43;92344.44;;;15.68;39.78
17521;BME280;8878;-33.370;-70.552;2023-04-19T04:47:15;92343.41;;;15.64;39.60
17521;BME280;8878;-33.370;-70.552;2023-04-19T04:49:45;92334.16;;;15.61;39.33
17521;BME280;8878;-33.370;-70.552;2023-04-19T04:52:14;92337.16;;;15.74;39.42
17521;BME280;8878;-33.370;-70.552;2023-04-19T04:54:44;92326.91;;;15.81;38.32
17521;BME280;8878;-33.370;-70.552;2023-04-19T04:57:13;92337.78;;;15.84;40.21
17521;BME280;8878;-33.370;-70.552;2023-04-19T04:59:43;92330.25;;;15.73;40.52
17521;BME280;8878;-33.370;-70.552;2023-04-19T05:02:15;92330.22;;;15.59;40.33
17521;BME280;8878;-33.370;-70.552;2023-04-19T05:04:44;92334.97;;;15.62;39.24
17521;BME280;8878;-33.370;-70.552;2023-04-19T05:07:14;92319.97;;;15.66;40.31
17521;BME280;8878;-33.370;-70.552;2023-04-19T05:09:43;92326.31;;;15.70;40.24
17521;BME280;8878;-33.370;-70.552;2023-04-19T05:12:12;92323.66;;;15.51;39.82
17521;BME280;8878;-33.370;-70.552;2023-04-19T05:14:42;92330.66;;;15.47;39.26
17521;BME280;8878;-33.370;-70.552;2023-04-19T05:17:14;92336.53;;;15.63;40.06
17521;BME280;8878;-33.370;-70.552;2023-04-19T05:19:44;92338.50;;;15.71;40.39
17521;BME280;8878;-33.370;-70.552;2023-04-19T05:22:14;92339.47;;;15.61;40.01
17521;BME280;8878;-33.370;-70.552;2023-04-19T05:24:43;92336.88;;;15.56;39.63
17521;BME280;8878;-33.370;-70.552;2023-04-19T05:27:13;92342.16;;;15.61;41.39
17521;BME280;8878;-33.370;-70.552;2023-04-19T05:29:42;92342.84;;;15.67;41.32
17521;BME280;8878;-33.370;-70.552;2023-04-19T05:32:11;92335.94;;;15.66;41.42
17521;BME280;8878;-33.370;-70.552;2023-04-19T05:34:42;92333.16;;;15.57;42.03
17521;BME280;8878;-33.370;-70.552;2023-04-19T05:37:12;92337.00;;;15.65;41.04
17521;BME280;8878;-33.370;-70.552;2023-04-19T05:39:41;92329.41;;;15.58;41.86
17521;BME280;8878;-33.370;-70.552;2023-04-19T05:42:11;92325.22;;;15.52;42.26
17521;BME280;8878;-33.370;-70.552;2023-04-19T05:44:40;92333.59;;;15.46;41.62
17521;BME280;8878;-33.370;-70.552;2023-04-19T05:47:09;92340.22;;;15.48;40.96
17521;BME280;8878;-33.370;-70.552;2023-04-19T05:49:39;92348.03;;;15.40;42.62
17521;BME280;8878;-33.370;-70.552;2023-04-19T05:52:10;92347.75;;;15.41;43.36
17521;BME280;8878;-33.370;-70.552;2023-04-19T05:54:40;92354.94;;;15.41;43.17
17521;BME280;8878;-33.370;-70.552;2023-04-19T05:57:10;92338.16;;;15.26;42.96
17521;BME280;8878;-33.370;-70.552;2023-04-19T05:59:39;92337.78;;;15.33;42.98
17521;BME280;8878;-33.370;-70.552;2023-04-19T06:02:09;92337.34;;;15.26;42.56
17521;BME280;8878;-33.370;-70.552;2023-04-19T06:04:38;92338.94;;;15.27;42.00
17521;BME280;8878;-33.370;-70.552;2023-04-19T06:07:09;92333.53;;;15.32;42.07
17521;BME280;8878;-33.370;-70.552;2023-04-19T06:09:39;92337.84;;;15.28;43.61
17521;BME280;8878;-33.370;-70.552;2023-04-19T06:12:08;92341.09;;;15.25;43.09
17521;BME280;8878;-33.370;-70.552;2023-04-19T06:14:37;92336.50;;;15.12;43.38
17521;BME280;8878;-33.370;-70.552;2023-04-19T06:17:08;92327.88;;;15.20;43.24
17521;BME280;8878;-33.370;-70.552;2023-04-19T06:19:37;92326.06;;;15.15;43.23
17521;BME280;8878;-33.370;-70.552;2023-04-19T06:22:07;92331.75;;;15.09;43.53
17521;BME280;8878;-33.370;-70.552;2023-04-19T06:24:39;92327.50;;;15.08;43.61
17521;BME280;8878;-33.370;-70.552;2023-04-19T06:27:09;92326.25;;;15.05;42.40
17521;BME280;8878;-33.370;-70.552;2023-04-19T06:29:38;92328.31;;;15.08;42.07
17521;BME280;8878;-33.370;-70.552;2023-04-19T06:32:08;92320.75;;;15.15;42.89
17521;BME280;8878;-33.370;-70.552;2023-04-19T06:34:38;92308.34;;;15.11;43.61
17521;BME280;8878;-33.370;-70.552;2023-04-19T06:37:07;92303.22;;;15.14;42.90
17521;BME280;8878;-33.370;-70.552;2023-04-19T06:39:38;92305.59;;;15.16;42.05
17521;BME280;8878;-33.370;-70.552;2023-04-19T06:42:08;92295.13;;;15.24;41.96
17521;BME280;8878;-33.370;-70.552;2023-04-19T06:44:38;92300.28;;;15.16;42.17
17521;BME280;8878;-33.370;-70.552;2023-04-19T06:47:07;92301.09;;;15.16;42.21
17521;BME280;8878;-33.370;-70.552;2023-04-19T06:49:37;92301.03;;;15.03;42.74
17521;BME280;8878;-33.370;-70.552;2023-04-19T06:52:06;92300.38;;;15.11;42.47
17521;BME280;8878;-33.370;-70.552;2023-04-19T06:54:36;92299.69;;;15.05;42.03
17521;BME280;8878;-33.370;-70.552;2023-04-19T06:57:07;92307.41;;;15.02;41.95
17521;BME280;8878;-33.370;-70.552;2023-04-19T06:59:36;92307.41;;;15.02;42.17
17521;BME280;8878;-33.370;-70.552;2023-04-19T07:02:06;92304.69;;;14.88;41.64
17521;BME280;8878;-33.370;-70.552;2023-04-19T07:04:36;92303.13;;;14.87;42.22
17521;BME280;8878;-33.370;-70.552;2023-04-19T07:07:05;92299.81;;;14.76;42.49
17521;BME280;8878;-33.370;-70.552;2023-04-19T07:09:35;92301.69;;;14.76;42.70
17521;BME280;8878;-33.370;-70.552;2023-04-19T07:12:06;92292.34;;;14.78;42.60
17521;BME280;8878;-33.370;-70.552;2023-04-19T07:14:36;92284.03;;;14.66;41.48
17521;BME280;8878;-33.370;-70.552;2023-04-19T07:17:05;92280.84;;;14.64;41.55
17521;BME280;8878;-33.370;-70.552;2023-04-19T07:19:34;92258.63;;;14.60;41.54
17521;BME280;8878;-33.370;-70.552;2023-04-19T07:22:05;92258.41;;;14.75;41.58
17521;BME280;8878;-33.370;-70.552;2023-04-19T07:24:34;92259.91;;;14.81;40.09
17521;BME280;8878;-33.370;-70.552;2023-04-19T07:27:07;92257.03;;;14.78;39.91
17521;BME280;8878;-33.370;-70.552;2023-04-19T07:29:37;92241.50;;;14.85;39.77
17521;BME280;8878;-33.370;-70.552;2023-04-19T07:32:07;92249.91;;;14.92;39.50
17521;BME280;8878;-33.370;-70.552;2023-04-19T07:34:37;92254.59;;;14.81;40.59
17521;BME280;8878;-33.370;-70.552;2023-04-19T07:37:07;92247.34;;;14.68;40.60
17521;BME280;8878;-33.370;-70.552;2023-04-19T07:39:37;92257.31;;;14.58;40.69
17521;BME280;8878;-33.370;-70.552;2023-04-19T07:42:08;92263.81;;;14.70;40.05
17521;BME280;8878;-33.370;-70.552;2023-04-19T07:44:37;92269.44;;;14.64;40.42
17521;BME280;8878;-33.370;-70.552;2023-04-19T07:47:06;92267.09;;;14.62;41.34
17521;BME280;8878;-33.370;-70.552;2023-04-19T07:49:36;92262.50;;;14.68;41.18
17521;BME280;8878;-33.370;-70.552;2023-04-19T07:52:07;92268.69;;;14.63;40.99
17521;BME280;8878;-33.370;-70.552;2023-04-19T07:54:36;92259.69;;;14.59;41.80
17521;BME280;8878;-33.370;-70.552;2023-04-19T07:57:08;92245.72;;;14.54;41.86
17521;BME280;8878;-33.370;-70.552;2023-04-19T07:59:38;92249.50;;;14.47;43.04
17521;BME280;8878;-33.370;-70.552;2023-04-19T08:02:07;92241.53;;;14.47;43.17
17521;BME280;8878;-33.370;-70.552;2023-04-19T08:04:37;92242.06;;;14.26;41.08
17521;BME280;8878;-33.370;-70.552;2023-04-19T08:07:07;92243.13;;;14.48;41.38
17521;BME280;8878;-33.370;-70.552;2023-04-19T08:09:36;92238.94;;;14.42;42.30
17521;BME280;8878;-33.370;-70.552;2023-04-19T08:12:07;92240.13;;;14.31;43.37
17521;BME280;8878;-33.370;-70.552;2023-04-19T08:14:36;92234.31;;;14.29;43.59
17521;BME280;8878;-33.370;-70.552;2023-04-19T08:17:06;92237.47;;;14.31;43.10
17521;BME280;8878;-33.370;-70.552;2023-04-19T08:19:36;92234.94;;;14.45;42.80
17521;BME280;8878;-33.370;-70.552;2023-04-19T08:22:06;92220.94;;;14.58;41.73
17521;BME280;8878;-33.370;-70.552;2023-04-19T08:24:37;92216.34;;;14.64;42.17
17521;BME280;8878;-33.370;-70.552;2023-04-19T08:27:09;92224.03;;;14.65;41.80
17521;BME280;8878;-33.370;-70.552;2023-04-19T08:29:39;92221.16;;;14.62;42.06
17521;BME280;8878;-33.370;-70.552;2023-04-19T08:32:08;92221.03;;;14.53;41.35
17521;BME280;8878;-33.370;-70.552;2023-04-19T08:34:38;92216.78;;;14.52;40.10
17521;BME280;8878;-33.370;-70.552;2023-04-19T08:37:08;92208.75;;;14.57;40.22
17521;BME280;8878;-33.370;-70.552;2023-04-19T08:39:38;92206.47;;;14.69;40.08
17521;BME280;8878;-33.370;-70.552;2023-04-19T08:42:10;92204.78;;;14.73;40.13
17521;BME280;8878;-33.370;-70.552;2023-04-19T08:44:39;92209.03;;;14.74;40.40
17521;BME280;8878;-33.370;-70.552;2023-04-19T08:47:11;92206.94;;;14.71;40.69
17521;BME280;8878;-33.370;-70.552;2023-04-19T08:49:42;92205.06;;;14.72;41.00
17521;BME280;8878;-33.370;-70.552;2023-04-19T08:52:13;92201.19;;;14.64;41.41
17521;BME280;8878;-33.370;-70.552;2023-04-19T08:54:43;92194.69;;;14.57;42.42
17521;BME280;8878;-33.370;-70.552;2023-04-19T08:57:16;92195.97;;;14.59;42.49
17521;BME280;8878;-33.370;-70.552;2023-04-19T08:59:46;92190.53;;;14.50;42.72
17521;BME280;8878;-33.370;-70.552;2023-04-19T09:02:21;92195.72;;;14.42;42.67
17521;BME280;8878;-33.370;-70.552;2023-04-19T09:04:51;92191.84;;;14.29;42.29
17521;BME280;8878;-33.370;-70.552;2023-04-19T09:07:24;92194.16;;;14.17;42.77
17521;BME280;8878;-33.370;-70.552;2023-04-19T09:10:14;92203.63;;;14.04;43.16
17521;BME280;8878;-33.370;-70.552;2023-04-19T09:12:59;92203.97;;;14.17;41.94
17521;BME280;8878;-33.370;-70.552;2023-04-19T09:15:37;92191.94;;;14.05;41.39
17521;BME280;8878;-33.370;-70.552;2023-04-19T09:18:08;92197.53;;;14.04;41.99
17521;BME280;8878;-33.370;-70.552;2023-04-19T09:20:38;92197.72;;;14.07;42.12
17521;BME280;8878;-33.370;-70.552;2023-04-19T09:23:09;92192.41;;;14.07;41.76
17521;BME280;8878;-33.370;-70.552;2023-04-19T09:25:38;92195.78;;;13.94;41.43
17521;BME280;8878;-33.370;-70.552;2023-04-19T09:28:13;92203.53;;;14.09;40.54
17521;BME280;8878;-33.370;-70.552;2023-04-19T09:30:43;92200.75;;;14.20;41.38
17521;BME280;8878;-33.370;-70.552;2023-04-19T09:33:12;92207.34;;;14.22;42.14
17521;BME280;8878;-33.370;-70.552;2023-04-19T09:35:43;92206.00;;;14.25;42.81
17521;BME280;8878;-33.370;-70.552;2023-04-19T09:38:14;92209.50;;;14.20;42.39
17521;BME280;8878;-33.370;-70.552;2023-04-19T09:40:44;92205.13;;;14.10;43.51
17521;BME280;8878;-33.370;-70.552;2023-04-19T09:43:23;92207.25;;;14.08;43.07
17521;BME280;8878;-33.370;-70.552;2023-04-19T09:45:53;92215.63;;;14.21;42.63
17521;BME280;8878;-33.370;-70.552;2023-04-19T09:48:22;92207.84;;;14.24;41.69
17521;BME280;8878;-33.370;-70.552;2023-04-19T09:50:53;92214.59;;;14.17;42.38
17521;BME280;8878;-33.370;-70.552;2023-04-19T09:53:23;92215.38;;;14.17;41.63
17521;BME280;8878;-33.370;-70.552;2023-04-19T09:55:54;92212.53;;;14.14;42.93
17521;BME280;8878;-33.370;-70.552;2023-04-19T09:58:27;92217.38;;;14.06;41.95
17521;BME280;8878;-33.370;-70.552;2023-04-19T10:00:58;92217.53;;;14.15;40.91
17521;BME280;8878;-33.370;-70.552;2023-04-19T10:03:28;92211.66;;;13.99;40.89
17521;BME280;8878;-33.370;-70.552;2023-04-19T10:05:59;92220.53;;;14.08;40.67
17521;BME280;8878;-33.370;-70.552;2023-04-19T10:08:29;92219.72;;;13.89;43.15
17521;BME280;8878;-33.370;-70.552;2023-04-19T10:11:00;92222.44;;;13.84;43.45
17521;BME280;8878;-33.370;-70.552;2023-04-19T10:13:31;92221.66;;;13.84;42.13
17521;BME280;8878;-33.370;-70.552;2023-04-19T10:16:01;92219.72;;;13.89;41.23
17521;BME280;8878;-33.370;-70.552;2023-04-19T10:18:32;92229.00;;;13.87;40.98
17521;BME280;8878;-33.370;-70.552;2023-04-19T10:21:06;92229.31;;;13.85;41.80
17521;BME280;8878;-33.370;-70.552;2023-04-19T10:23:37;92236.81;;;13.78;41.83
17521;BME280;8878;-33.370;-70.552;2023-04-19T10:26:06;92231.28;;;13.75;42.17
17521;BME280;8878;-33.370;-70.552;2023-04-19T10:28:37;92234.09;;;13.83;41.51
17521;BME280;8878;-33.370;-70.552;2023-04-19T10:31:11;92240.47;;;13.82;42.26
17521;BME280;8878;-33.370;-70.552;2023-04-19T10:33:41;92235.59;;;13.70;42.93
17521;BME280;8878;-33.370;-70.552;2023-04-19T10:36:13;92234.81;;;13.65;43.64
17521;BME280;8878;-33.370;-70.552;2023-04-19T10:38:44;92235.41;;;13.62;43.56
17521;BME280;8878;-33.370;-70.552;2023-04-19T10:41:16;92229.59;;;13.60;42.58
17521;BME280;8878;-33.370;-70.552;2023-04-19T10:44:08;92229.69;;;13.73;41.49
17521;BME280;8878;-33.370;-70.552;2023-04-19T10:46:38;92232.28;;;13.79;41.61
17521;BME280;8878;-33.370;-70.552;2023-04-19T10:49:08;92231.97;;;13.85;40.64
17521;BME280;8878;-33.370;-70.552;2023-04-19T10:51:39;92228.19;;;13.91;41.40
17521;BME280;8878;-33.370;-70.552;2023-04-19T10:54:28;92213.63;;;13.89;42.75
17521;BME280;8878;-33.370;-70.552;2023-04-19T10:57:02;92223.25;;;13.80;43.20
17521;BME280;8878;-33.370;-70.552;2023-04-19T10:59:34;92224.78;;;13.86;43.39
17521;BME280;8878;-33.370;-70.552;2023-04-19T11:02:04;92222.72;;;13.83;43.27
17521;BME280;8878;-33.370;-70.552;2023-04-19T11:05:01;92224.97;;;13.70;43.63
17521;BME280;8878;-33.370;-70.552;2023-04-19T11:07:38;92227.38;;;13.67;42.93
17521;BME280;8878;-33.370;-70.552;2023-04-19T11:10:10;92224.13;;;13.75;41.39
17521;BME280;8878;-33.370;-70.552;2023-04-19T11:12:43;92221.22;;;13.71;42.50
17521;BME280;8878;-33.370;-70.552;2023-04-19T11:15:14;92215.16;;;13.71;42.41
17521;BME280;8878;-33.370;-70.552;2023-04-19T11:17:44;92220.13;;;13.78;42.21
17521;BME280;8878;-33.370;-70.552;2023-04-19T11:20:18;92224.84;;;13.81;42.03
17521;BME280;8878;-33.370;-70.552;2023-04-19T11:22:51;92217.63;;;13.86;41.44
17521;BME280;8878;-33.370;-70.552;2023-04-19T11:25:23;92211.97;;;13.93;40.32
17521;BME280;8878;-33.370;-70.552;2023-04-19T11:27:53;92217.00;;;13.94;41.48
17521;BME280;8878;-33.370;-70.552;2023-04-19T11:30:28;92220.16;;;13.96;41.94
17521;BME280;8878;-33.370;-70.552;2023-04-19T11:32:58;92218.47;;;14.05;42.00
17521;BME280;8878;-33.370;-70.552;2023-04-19T11:35:28;92216.53;;;14.11;41.90
17521;BME280;8878;-33.370;-70.552;2023-04-19T11:37:58;92215.06;;;14.00;42.21
17521;BME280;8878;-33.370;-70.552;2023-04-19T11:40:28;92218.38;;;13.92;42.39
17521;BME280;8878;-33.370;-70.552;2023-04-19T11:42:58;92221.75;;;13.97;41.52
17521;BME280;8878;-33.370;-70.552;2023-04-19T11:45:30;92215.13;;;13.95;40.90
17521;BME280;8878;-33.370;-70.552;2023-04-19T11:48:00;92226.69;;;14.04;41.04
17521;BME280;8878;-33.370;-70.552;2023-04-19T11:50:35;92222.69;;;14.06;41.31
17521;BME280;8878;-33.370;-70.552;2023-04-19T11:53:12;92223.13;;;14.14;40.62
17521;BME280;8878;-33.370;-70.552;2023-04-19T11:55:46;92229.44;;;14.18;39.84
17521;BME280;8878;-33.370;-70.552;2023-04-19T11:58:27;92228.00;;;14.06;39.22
17521;BME280;8878;-33.370;-70.552;2023-04-19T12:01:02;92229.16;;;14.19;40.35
17521;BME280;8878;-33.370;-70.552;2023-04-19T12:03:34;92230.66;;;14.25;39.98
17521;BME280;8878;-33.370;-70.552;2023-04-19T12:06:03;92228.22;;;14.29;38.85
17521;BME280;8878;-33.370;-70.552;2023-04-19T12:08:36;92229.78;;;14.54;38.84
17521;BME280;8878;-33.370;-70.552;2023-04-19T12:11:06;92226.69;;;14.65;39.58
17521;BME280;8878;-33.370;-70.552;2023-04-19T12:13:37;92234.00;;;14.73;40.24
17521;BME280;8878;-33.370;-70.552;2023-04-19T12:16:09;92226.59;;;14.89;39.81
17521;BME280;8878;-33.370;-70.552;2023-04-19T12:18:45;92237.69;;;15.10;39.34
17521;BME280;8878;-33.370;-70.552;2023-04-19T12:21:26;92231.34;;;15.24;38.84
17521;BME280;8878;-33.370;-70.552;2023-04-19T12:23:57;92242.50;;;15.40;38.44
17521;BME280;8878;-33.370;-70.552;2023-04-19T12:26:27;92235.84;;;15.56;38.96
17521;BME280;8878;-33.370;-70.552;2023-04-19T12:28:58;92234.50;;;15.73;38.61
17521;BME280;8878;-33.370;-70.552;2023-04-19T12:31:30;92227.59;;;15.85;38.51
17521;BME280;8878;-33.370;-70.552;2023-04-19T12:34:00;92229.78;;;15.97;38.12
17521;BME280;8878;-33.370;-70.552;2023-04-19T12:36:29;92229.47;;;16.12;36.90
17521;BME280;8878;-33.370;-70.552;2023-04-19T12:38:58;92217.91;;;16.30;33.85
17521;BME280;8878;-33.370;-70.552;2023-04-19T12:41:28;92227.94;;;16.61;33.90
17521;BME280;8878;-33.370;-70.552;2023-04-19T12:43:57;92227.97;;;16.83;33.46
17521;BME280;8878;-33.370;-70.552;2023-04-19T12:46:28;92229.44;;;16.89;31.58
17521;BME280;8878;-33.370;-70.552;2023-04-19T12:48:58;92228.88;;;17.23;32.07
17521;BME280;8878;-33.370;-70.552;2023-04-19T12:51:27;92227.44;;;17.39;30.88
17521;BME280;8878;-33.370;-70.552;2023-04-19T12:53:57;92220.13;;;17.53;32.09
17521;BME280;8878;-33.370;-70.552;2023-04-19T12:56:28;92225.72;;;17.66;30.11
17521;BME280;8878;-33.370;-70.552;2023-04-19T12:58:58;92221.06;;;17.80;30.51